TimeHST,TemperatureF,Dew PointF,Humidity,Sea Level PressureIn,VisibilityMPH,Wind Direction,Wind SpeedMPH,Gust SpeedMPH,PrecipitationIn,Events,Conditions,WindDirDegrees,DateUTC
12:56 AM,68.0,63.9,87,30.01,10.0,NE,5.8,-,N/A,,Clear,50,2013-08-05 10:56:00
1:56 AM,70.9,66.9,87,29.98,10.0,ENE,8.1,-,N/A,,Scattered Clouds,60,2013-08-05 11:56:00
2:56 AM,70.9,65.8,84,29.97,10.0,NE,9.2,-,N/A,,Partly Cloudy,40,2013-08-05 12:56:00
3:56 AM,70.9,66.9,87,29.96,10.0,ENE,10.4,-,N/A,,Partly Cloudy,60,2013-08-05 13:56:00
4:56 AM,70.9,66.9,87,29.97,10.0,East,5.8,-,N/A,,Scattered Clouds,100,2013-08-05 14:56:00
5:56 AM,70.0,66.9,90,29.99,10.0,ENE,6.9,-,N/A,,Clear,60,2013-08-05 15:56:00
6:56 AM,72.9,66.9,82,30.01,10.0,NNE,12.7,-,N/A,,Clear,30,2013-08-05 16:56:00
7:56 AM,77.0,68.0,74,30.01,10.0,NE,16.1,20.7,N/A,,Partly Cloudy,40,2013-08-05 17:56:00
8:31 AM,75.2,68.0,78,30.09,10.0,ENE,12.7,-,N/A,,Mostly Cloudy,70,2013-08-05 18:31:00
8:56 AM,79.0,68.0,69,30.01,10.0,NE,13.8,-,N/A,,Scattered Clouds,40,2013-08-05 18:56:00
9:56 AM,82.9,68.0,60,30.01,10.0,NNE,15.0,-,N/A,,Partly Cloudy,30,2013-08-05 19:56:00
10:56 AM,80.6,68.0,65,30.07,10.0,ESE,10.4,-,N/A,,Mostly Cloudy,120,2013-08-05 20:56:00
11:56 AM,79.9,68.0,67,29.99,10.0,Variable,4.6,-,N/A,,Mostly Cloudy,0,2013-08-05 21:56:00
12:04 PM,80.6,68.0,65,30.06,10.0,WNW,8.1,-,N/A,,Mostly Cloudy,300,2013-08-05 22:04:00
12:37 PM,75.2,69.8,83,30.06,5.0,NE,11.5,-,0.00,Rain,Light Rain,40,2013-08-05 22:37:00
12:48 PM,80.6,71.6,74,30.05,10.0,NE,9.2,-,0.00,Rain,Light Rain,40,2013-08-05 22:48:00
12:56 PM,82.9,68.9,62,29.98,10.0,ENE,10.4,-,0.00,Rain,Light Rain,60,2013-08-05 22:56:00
1:19 PM,80.6,69.8,70,30.04,10.0,SW,5.8,-,0.00,,Mostly Cloudy,220,2013-08-05 23:19:00
1:56 PM,80.6,69.8,70,30.04,10.0,North,4.6,-,N/A,Rain,Light Rain,10,2013-08-05 23:56:00
2:12 PM,75.2,69.8,83,30.03,9.0,North,6.9,-,0.00,Rain,Light Rain,10,2013-08-06 00:12:00
2:56 PM,75.9,70.9,84,29.96,10.0,WSW,4.6,-,0.00,Rain,Light Rain,240,2013-08-06 00:56:00
3:56 PM,74.8,70.9,87,29.96,5.0,Variable,5.8,-,0.00,Rain,Light Rain,0,2013-08-06 01:56:00
4:56 PM,75.2,71.6,89,30.02,10.0,SSW,5.8,-,N/A,Rain,Light Rain,210,2013-08-06 02:56:00
5:56 PM,77.0,68.9,76,29.96,10.0,NE,15.0,20.7,0.00,,Overcast,50,2013-08-06 03:56:00
6:03 PM,77.0,68.0,74,30.02,10.0,NE,16.1,20.7,N/A,,Mostly Cloudy,40,2013-08-06 04:03:00
6:14 PM,75.2,68.0,78,30.02,10.0,NE,15.0,24.2,N/A,,Scattered Clouds,50,2013-08-06 04:14:00
6:56 PM,73.9,66.9,79,29.97,10.0,NE,18.4,24.2,N/A,,Clear,40,2013-08-06 04:56:00
7:56 PM,72.9,66.9,82,29.99,10.0,ENE,10.4,24.2,N/A,,Clear,60,2013-08-06 05:56:00
8:56 PM,72.9,66.9,82,30.00,10.0,ENE,10.4,-,N/A,,Partly Cloudy,70,2013-08-06 06:56:00
9:11 PM,73.4,68.0,83,30.08,10.0,East,4.6,-,N/A,,Mostly Cloudy,80,2013-08-06 07:11:00
9:21 PM,73.4,69.8,88,30.08,10.0,Variable,5.8,-,N/A,,Overcast,0,2013-08-06 07:21:00
9:49 PM,73.4,69.8,88,30.08,10.0,NNE,5.8,-,0.00,,Overcast,30,2013-08-06 07:49:00
9:56 PM,72.9,68.9,87,30.01,10.0,NNE,5.8,-,0.00,,Overcast,30,2013-08-06 07:56:00
10:03 PM,73.4,69.8,88,30.09,10.0,NNE,5.8,-,N/A,,Overcast,30,2013-08-06 08:03:00
10:13 PM,73.4,68.0,83,30.09,10.0,NE,4.6,-,N/A,,Mostly Cloudy,50,2013-08-06 08:13:00
10:21 PM,73.4,68.0,83,30.08,10.0,ENE,4.6,-,N/A,,Scattered Clouds,70,2013-08-06 08:21:00
10:56 PM,72.0,66.9,84,30.01,10.0,NE,5.8,-,N/A,,Clear,40,2013-08-06 08:56:00
11:56 PM,70.0,65.8,87,30.01,10.0,ENE,3.5,-,N/A,,Scattered Clouds,70,2013-08-06 09:56:00